Time;durP1;ratioP1;P1;durP2;ratioP2;P2;SDS_P1;SDS_P2;PMS_P1;PMS_P2;Temp;Humidity;BMP_temperature;BMP_pressure;BME280_temperature;BME280_humidity;BME280_pressure;Samples;Min_cycle;Max_cycle;Signal;HPM_P1;HPM_P2
2021/08/25 00:02:10;;;;;;;12.05;9.75;;;;;;;12.65;100.00;96469.69;5071868;28;20454;-76
2021/08/25 00:04:35;;;;;;;11.23;9.30;;;;;;;12.57;100.00;96467.56;5071883;28;20422;-76
2021/08/25 00:07:01;;;;;;;15.43;11.00;;;;;;;12.66;100.00;96465.34;5071196;28;20415;-76
2021/08/25 00:09:26;;;;;;;11.57;10.47;;;;;;;12.59;100.00;96460.50;5071575;28;20437;-76
2021/08/25 00:11:52;;;;;;;12.70;10.57;;;;;;;12.55;100.00;96458.19;5071513;28;20968;-76
2021/08/25 00:14:17;;;;;;;13.30;10.85;;;;;;;12.46;100.00;96456.09;5071204;28;20477;-75
2021/08/25 00:16:42;;;;;;;13.75;10.95;;;;;;;12.57;100.00;96454.56;5071411;28;20462;-76
2021/08/25 00:19:09;;;;;;;11.93;10.73;;;;;;;12.55;100.00;96459.00;5070077;28;20494;-76
2021/08/25 00:21:35;;;;;;;13.55;10.95;;;;;;;12.50;100.00;96450.66;5069852;28;20426;-76
2021/08/25 00:24:00;;;;;;;11.35;10.35;;;;;;;12.50;100.00;96449.81;5071089;28;20407;-75
2021/08/25 00:26:26;;;;;;;12.30;11.10;;;;;;;12.30;100.00;96451.00;5070496;28;20832;-75
2021/08/25 00:28:51;;;;;;;13.87;11.90;;;;;;;12.22;100.00;96455.81;5071000;28;20419;-76
2021/08/25 00:31:17;;;;;;;14.30;12.00;;;;;;;12.03;100.00;96448.25;5070993;28;20495;-75
2021/08/25 00:33:42;;;;;;;14.93;12.35;;;;;;;11.95;100.00;96451.28;5070964;28;20974;-75
2021/08/25 00:36:09;;;;;;;15.70;11.80;;;;;;;11.88;100.00;96456.91;5069390;28;20491;-75
2021/08/25 00:38:34;;;;;;;16.52;12.15;;;;;;;11.82;100.00;96445.91;5069658;28;20420;-75
2021/08/25 00:41:00;;;;;;;12.80;11.30;;;;;;;11.92;100.00;96443.66;5070589;28;20515;-75
2021/08/25 00:43:25;;;;;;;13.90;12.10;;;;;;;11.98;100.00;96443.31;5070910;28;20643;-75
2021/08/25 00:45:50;;;;;;;11.90;10.70;;;;;;;12.02;100.00;96431.84;5069224;28;20420;-75
2021/08/25 00:48:17;;;;;;;13.03;11.63;;;;;;;12.02;100.00;96423.22;5069517;28;20448;-75
2021/08/25 00:50:44;;;;;;;12.82;11.57;;;;;;;12.16;100.00;96427.59;5070804;28;20503;-75
2021/08/25 00:53:11;;;;;;;13.00;11.30;;;;;;;12.18;100.00;96429.19;5070845;28;20507;-76
2021/08/25 00:55:37;;;;;;;12.43;11.27;;;;;;;12.43;100.00;96420.78;5070232;28;20419;-75
2021/08/25 00:58:04;;;;;;;12.32;11.13;;;;;;;12.34;100.00;96422.13;5070746;28;20419;-75
2021/08/25 01:00:29;;;;;;;11.05;10.02;;;;;;;12.29;100.00;96424.19;5070591;28;20426;-75
2021/08/25 01:02:57;;;;;;;10.65;9.75;;;;;;;12.23;100.00;96428.91;5070734;28;20491;-76
2021/08/25 01:05:23;;;;;;;12.35;10.60;;;;;;;12.00;100.00;96425.06;5070660;28;20419;-76
2021/08/25 01:07:49;;;;;;;12.60;10.77;;;;;;;11.91;100.00;96426.44;5069463;28;20777;-75
2021/08/25 01:10:24;;;;;;;11.55;10.35;;;;;;;11.88;100.00;96428.38;5070393;28;20453;-75
2021/08/25 01:12:50;;;;;;;11.95;10.43;;;;;;;11.84;100.00;96431.13;5070586;28;20423;-75
2021/08/25 01:15:15;;;;;;;11.88;10.68;;;;;;;11.87;100.00;96419.75;5068863;28;20416;-75
2021/08/25 01:17:43;;;;;;;11.37;9.03;;;;;;;12.05;100.00;96423.00;5070636;28;20416;-75
2021/08/25 01:20:12;;;;;;;11.82;9.80;;;;;;;11.97;100.00;96425.22;5070649;28;20428;-75
2021/08/25 01:22:39;;;;;;;10.75;9.68;;;;;;;11.84;100.00;96419.91;5070622;28;20423;-75
2021/08/25 01:25:07;;;;;;;11.00;9.90;;;;;;;11.87;100.00;96427.53;5070534;28;20446;-75
2021/08/25 01:27:38;;;;;;;11.07;9.68;;;;;;;11.89;100.00;96420.47;5070367;28;20477;-75
2021/08/25 01:30:07;;;;;;;11.43;9.63;;;;;;;11.92;100.00;96416.88;5069235;28;20404;-75
2021/08/25 01:32:33;;;;;;;11.60;10.35;;;;;;;11.97;100.00;96420.88;5070359;28;20415;-75
2021/08/25 01:34:59;;;;;;;14.18;10.63;;;;;;;11.89;100.00;96415.28;5068922;28;20608;-76
2021/08/25 01:37:26;;;;;;;12.63;10.93;;;;;;;11.89;100.00;96412.69;5070302;28;20976;-75
2021/08/25 01:39:53;;;;;;;11.30;10.20;;;;;;;11.90;100.00;96416.94;5069266;28;20921;-76
2021/08/25 01:42:19;;;;;;;11.30;10.10;;;;;;;11.96;100.00;96403.63;5070287;28;20423;-75
2021/08/25 01:44:44;;;;;;;11.65;10.00;;;;;;;11.93;100.00;96408.16;5068850;28;20430;-75
2021/08/25 01:47:12;;;;;;;11.80;10.50;;;;;;;11.94;100.00;96400.31;5069937;28;20495;-75
2021/08/25 01:49:37;;;;;;;14.67;10.43;;;;;;;11.92;100.00;96402.13;5070426;28;20695;-75
2021/08/25 01:52:03;;;;;;;11.20;10.20;;;;;;;11.97;100.00;96394.91;5069120;28;20511;-76
2021/08/25 01:54:29;;;;;;;11.50;10.32;;;;;;;12.04;100.00;96398.81;5070642;28;20423;-76
2021/08/25 01:56:54;;;;;;;11.82;10.73;;;;;;;12.02;100.00;96398.09;5070692;28;20411;-76
2021/08/25 01:59:20;;;;;;;11.55;10.45;;;;;;;11.99;100.00;96392.25;5070416;28;20889;-75
2021/08/25 02:01:45;;;;;;;13.13;10.37;;;;;;;12.34;100.00;96390.13;5070030;28;20416;-75
2021/08/25 02:04:12;;;;;;;11.57;10.37;;;;;;;12.17;100.00;96392.94;5068591;28;20407;-75
2021/08/25 02:06:37;;;;;;;13.57;10.77;;;;;;;12.04;100.00;96397.97;5068349;28;20533;-75
2021/08/25 02:09:03;;;;;;;13.83;11.10;;;;;;;11.95;100.00;96396.78;5073615;28;20947;-75
2021/08/25 02:11:29;;;;;;;12.13;10.90;;;;;;;11.86;100.00;96400.75;5072530;28;20415;-76
2021/08/25 02:13:54;;;;;;;10.88;9.77;;;;;;;11.81;100.00;96399.28;5073778;28;20416;-76
2021/08/25 02:16:20;;;;;;;11.60;10.40;;;;;;;11.62;100.00;96395.16;5073527;28;20430;-75
2021/08/25 02:18:46;;;;;;;11.57;10.37;;;;;;;11.53;100.00;96395.69;5073565;28;20415;-76
2021/08/25 02:21:14;;;;;;;9.65;7.97;;;;;;;11.56;100.00;96400.69;5073466;28;20510;-75
2021/08/25 02:23:40;;;;;;;12.10;10.63;;;;;;;11.46;100.00;96398.69;5072096;28;20438;-75
2021/08/25 02:26:05;;;;;;;10.93;9.73;;;;;;;11.45;100.00;96397.03;5072982;28;20427;-75
2021/08/25 02:28:31;;;;;;;10.70;9.63;;;;;;;11.42;100.00;96392.00;5073245;28;20469;-75
2021/08/25 02:30:56;;;;;;;9.90;8.80;;;;;;;11.43;100.00;96386.75;5073240;28;20489;-75
2021/08/25 02:33:22;;;;;;;12.20;10.67;;;;;;;11.38;100.00;96381.84;5073190;28;20420;-75
2021/08/25 02:35:47;;;;;;;11.83;10.00;;;;;;;11.19;100.00;96378.56;5072799;28;20808;-75
2021/08/25 02:38:14;;;;;;;13.30;10.88;;;;;;;11.23;100.00;96382.66;5073091;28;20433;-75
2021/08/25 02:40:40;;;;;;;11.85;9.35;;;;;;;11.25;100.00;96378.25;5071727;28;20416;-75
2021/08/25 02:43:05;;;;;;;11.50;9.07;;;;;;;11.16;100.00;96373.59;5073183;28;20784;-75
2021/08/25 02:45:31;;;;;;;10.50;9.43;;;;;;;11.08;100.00;96373.13;5072996;28;20780;-75
2021/08/25 02:47:56;;;;;;;10.70;9.67;;;;;;;11.11;100.00;96368.63;5073071;28;20411;-75
2021/08/25 02:50:22;;;;;;;10.27;9.23;;;;;;;11.17;100.00;96367.47;5073097;28;20742;-75
2021/08/25 02:52:47;;;;;;;16.13;10.60;;;;;;;11.13;100.00;96358.19;5071688;28;20419;-75
2021/08/25 02:55:14;;;;;;;12.20;10.90;;;;;;;11.24;100.00;96355.00;5072642;28;20416;-75
2021/08/25 02:57:40;;;;;;;14.60;12.10;;;;;;;11.16;100.00;96365.81;5072836;28;20510;-75
2021/08/25 03:00:07;;;;;;;11.80;10.63;;;;;;;11.08;100.00;96357.59;5071507;28;20503;-74
2021/08/25 03:02:32;;;;;;;12.18;10.90;;;;;;;11.20;100.00;96366.44;5071707;28;20431;-76
2021/08/25 03:04:57;;;;;;;14.33;10.60;;;;;;;11.14;100.00;96370.22;5072626;28;20408;-76
2021/08/25 03:07:23;;;;;;;13.50;9.90;;;;;;;11.11;100.00;96365.19;5085880;22;20924;-74
2021/08/25 03:09:48;;;;;;;11.50;10.25;;;;;;;11.15;100.00;96364.94;5072499;28;20971;-74
2021/08/25 03:12:15;;;;;;;11.43;10.00;;;;;;;11.36;100.00;96368.09;5072551;28;20495;-74
2021/08/25 03:14:41;;;;;;;11.88;10.13;;;;;;;11.29;100.00;96359.00;5072393;28;20494;-74
2021/08/25 03:17:07;;;;;;;9.20;8.23;;;;;;;11.13;100.00;96355.59;5072029;28;20502;-74
2021/08/25 03:19:32;;;;;;;11.77;8.87;;;;;;;11.01;100.00;96351.94;5072155;28;20437;-74
2021/08/25 03:21:57;;;;;;;10.07;9.00;;;;;;;11.12;100.00;96351.31;5070761;28;20521;-74
2021/08/25 03:24:23;;;;;;;12.77;9.30;;;;;;;11.06;100.00;96354.25;5072223;28;20423;-74
2021/08/25 03:26:48;;;;;;;14.37;9.60;;;;;;;10.92;100.00;96356.78;5071784;28;20415;-74
2021/08/25 03:29:15;;;;;;;12.90;10.40;;;;;;;11.04;100.00;96361.28;5071134;28;20447;-74
2021/08/25 03:31:40;;;;;;;11.97;10.17;;;;;;;10.97;100.00;96357.34;5071910;28;20403;-74
2021/08/25 03:34:06;;;;;;;11.17;9.23;;;;;;;10.96;100.00;96350.50;5071990;28;20971;-74
2021/08/25 03:36:31;;;;;;;11.37;10.27;;;;;;;10.98;100.00;96348.69;5071561;28;20913;-74
2021/08/25 03:38:57;;;;;;;12.53;11.23;;;;;;;11.03;100.00;96344.88;5071047;28;20928;-73
2021/08/25 03:41:22;;;;;;;12.00;10.17;;;;;;;11.10;100.00;96340.22;5071779;28;20419;-75
2021/08/25 03:43:48;;;;;;;12.95;10.38;;;;;;;11.13;100.00;96340.03;5071917;28;20477;-74
2021/08/25 03:46:15;;;;;;;14.45;11.43;;;;;;;11.14;100.00;96339.13;5071337;28;20781;-74
2021/08/25 03:48:40;;;;;;;12.63;11.43;;;;;;;11.18;100.00;96340.59;5070526;28;20823;-74
2021/08/25 03:51:06;;;;;;;11.03;10.03;;;;;;;11.22;100.00;96334.31;5070317;28;20420;-74
2021/08/25 03:53:31;;;;;;;12.07;10.80;;;;;;;11.21;100.00;96335.25;5071608;28;20415;-74
2021/08/25 03:55:57;;;;;;;13.40;11.23;;;;;;;11.11;100.00;96334.09;5071298;28;20426;-74
2021/08/25 03:58:22;;;;;;;12.10;10.93;;;;;;;11.17;100.00;96328.56;5071421;28;20419;-74
2021/08/25 04:00:48;;;;;;;11.80;10.60;;;;;;;11.13;100.00;96330.50;5071428;28;20471;-74
2021/08/25 04:03:14;;;;;;;14.97;11.60;;;;;;;11.13;100.00;96321.91;5071345;28;20416;-74
2021/08/25 04:05:40;;;;;;;11.53;10.43;;;;;;;11.08;100.00;96322.13;5071317;28;20427;-74
2021/08/25 04:08:05;;;;;;;11.77;10.57;;;;;;;11.03;100.00;96328.50;5067620;28;20473;-74
2021/08/25 04:10:31;;;;;;;9.60;8.70;;;;;;;11.00;100.00;96323.50;5067381;28;20419;-74
2021/08/25 04:12:57;;;;;;;9.13;8.23;;;;;;;10.97;100.00;96326.25;5072333;28;20422;-74
2021/08/25 04:15:22;;;;;;;9.27;8.27;;;;;;;10.86;100.00;96330.28;5071142;28;20468;-74
2021/08/25 04:17:47;;;;;;;11.23;8.13;;;;;;;10.76;100.00;96323.94;5071195;28;20427;-75
2021/08/25 04:20:14;;;;;;;9.37;8.47;;;;;;;10.72;100.00;96332.78;5070817;28;20420;-74
2021/08/25 04:22:40;;;;;;;9.45;8.45;;;;;;;10.74;100.00;96324.91;5065717;28;20451;-74
2021/08/25 04:25:06;;;;;;;11.43;8.93;;;;;;;10.77;100.00;96325.59;5061949;28;20423;-75
2021/08/25 04:27:32;;;;;;;10.88;9.77;;;;;;;10.63;100.00;96318.56;5063729;28;20431;-74
2021/08/25 04:29:57;;;;;;;10.15;9.15;;;;;;;10.68;100.00;96326.09;5070978;28;20842;-74
2021/08/25 04:32:23;;;;;;;10.77;9.63;;;;;;;10.54;100.00;96326.00;5070915;28;20495;-74
2021/08/25 04:34:48;;;;;;;11.43;10.13;;;;;;;10.57;100.00;96324.09;5070795;28;20437;-74
2021/08/25 04:37:15;;;;;;;12.67;10.53;;;;;;;10.53;100.00;96319.13;5070679;28;20465;-74
2021/08/25 04:39:40;;;;;;;14.63;11.83;;;;;;;10.39;100.00;96325.91;5070823;28;20416;-75
2021/08/25 04:42:06;;;;;;;12.50;11.30;;;;;;;10.23;100.00;96325.00;5068052;28;20432;-75
2021/08/25 04:44:31;;;;;;;12.43;11.20;;;;;;;10.03;100.00;96322.63;5069351;28;20459;-75
2021/08/25 04:46:57;;;;;;;12.07;10.83;;;;;;;9.98;100.00;96322.03;5070851;28;20419;-75
2021/08/25 04:49:22;;;;;;;12.00;10.40;;;;;;;9.78;100.00;96328.22;5070793;28;20415;-75
2021/08/25 04:51:48;;;;;;;11.40;10.20;;;;;;;9.75;100.00;96326.59;5070648;28;20507;-74
2021/08/25 04:54:14;;;;;;;13.07;11.50;;;;;;;9.70;100.00;96328.59;5070739;28;20424;-76
2021/08/25 04:56:40;;;;;;;13.10;11.23;;;;;;;9.75;100.00;96329.19;5070282;28;20419;-76
2021/08/25 04:59:05;;;;;;;15.23;11.20;;;;;;;9.69;100.00;96326.94;5070693;28;20477;-76
2021/08/25 05:01:31;;;;;;;12.80;11.10;;;;;;;9.70;100.00;96326.84;5056803;28;20425;-77
2021/08/25 05:03:56;;;;;;;12.53;11.20;;;;;;;9.75;100.00;96328.38;5049470;28;20453;-75
2021/08/25 05:06:21;;;;;;;13.00;11.70;;;;;;;9.91;100.00;96321.50;5050331;28;20413;-76
2021/08/25 05:08:47;;;;;;;13.93;11.63;;;;;;;9.99;100.00;96326.28;5050566;28;20444;-76
2021/08/25 05:11:14;;;;;;;12.40;11.03;;;;;;;10.03;100.00;96322.63;5050476;28;20482;-75
2021/08/25 05:13:41;;;;;;;11.55;10.50;;;;;;;10.12;100.00;96327.31;5066329;28;20419;-74
2021/08/25 05:16:09;;;;;;;11.70;10.60;;;;;;;10.15;100.00;96329.75;5070117;28;20506;-74
2021/08/25 05:18:34;;;;;;;12.40;10.57;;;;;;;10.22;100.00;96322.50;5070425;28;20411;-74
2021/08/25 05:21:00;;;;;;;14.97;11.23;;;;;;;10.38;100.00;96325.97;5070274;28;20428;-74
2021/08/25 05:23:26;;;;;;;11.88;10.77;;;;;;;10.60;100.00;96331.69;5070402;28;20412;-74
2021/08/25 05:25:51;;;;;;;10.97;10.00;;;;;;;10.80;100.00;96334.97;5068783;28;20927;-74
2021/08/25 05:28:18;;;;;;;12.43;10.57;;;;;;;10.96;100.00;96335.78;5069012;28;20415;-74
2021/08/25 05:30:43;;;;;;;10.63;9.43;;;;;;;11.05;100.00;96335.28;5070077;28;20600;-74
2021/08/25 05:33:09;;;;;;;9.87;8.90;;;;;;;11.22;100.00;96336.91;5070293;28;20502;-74
2021/08/25 05:35:35;;;;;;;8.73;7.73;;;;;;;11.29;100.00;96343.44;5069888;28;20443;-74
2021/08/25 05:38:00;;;;;;;11.40;9.90;;;;;;;11.38;100.00;96339.47;5058171;28;20429;-74
2021/08/25 05:40:25;;;;;;;10.37;8.27;;;;;;;11.46;100.00;96345.09;5049889;28;20891;-73
2021/08/25 05:42:51;;;;;;;9.97;8.90;;;;;;;11.57;100.00;96353.09;5056152;28;20418;-73
2021/08/25 05:45:18;;;;;;;10.30;9.30;;;;;;;11.75;100.00;96351.16;5068713;28;20789;-73
2021/08/25 05:47:43;;;;;;;19.38;9.52;;;;;;;11.95;100.00;96352.66;5072730;28;20495;-72
2021/08/25 05:50:10;;;;;;;12.00;10.80;;;;;;;12.10;100.00;96349.13;5073929;28;20867;-72
2021/08/25 05:52:35;;;;;;;11.25;10.15;;;;;;;12.25;100.00;96351.75;5073060;28;20416;-73
2021/08/25 05:55:01;;;;;;;14.50;10.53;;;;;;;12.41;100.00;96355.06;5065405;28;20411;-73
2021/08/25 05:57:26;;;;;;;11.60;10.10;;;;;;;12.51;100.00;96351.00;5073264;28;20788;-73
2021/08/25 05:59:52;;;;;;;11.90;10.05;;;;;;;12.52;100.00;96354.41;5073344;28;20411;-72
2021/08/25 06:02:19;;;;;;;11.32;10.20;;;;;;;12.64;100.00;96348.47;5073533;28;20462;-73
2021/08/25 06:04:44;;;;;;;11.30;10.18;;;;;;;12.76;100.00;96350.31;5073565;28;20502;-73
2021/08/25 06:07:10;;;;;;;11.30;10.20;;;;;;;12.91;100.00;96353.72;5073114;28;20519;-73
2021/08/25 06:09:36;;;;;;;15.25;10.68;;;;;;;12.99;100.00;96351.47;5073454;28;20416;-72
2021/08/25 06:12:02;;;;;;;12.13;10.00;;;;;;;13.16;100.00;96344.34;5060268;28;20491;-72
2021/08/25 06:14:27;;;;;;;13.93;10.33;;;;;;;13.28;100.00;96347.06;5073827;28;20420;-72
2021/08/25 06:16:53;;;;;;;15.73;10.00;;;;;;;13.35;100.00;96344.03;5073035;28;20420;-72
2021/08/25 06:19:20;;;;;;;11.60;9.00;;;;;;;13.39;100.00;96342.94;5073305;28;20490;-73
2021/08/25 06:21:46;;;;;;;10.93;9.32;;;;;;;13.32;100.00;96338.13;5073081;28;20431;-72
2021/08/25 06:24:11;;;;;;;11.45;9.73;;;;;;;13.54;100.00;96334.97;5073238;28;20424;-72
2021/08/25 06:26:37;;;;;;;9.02;8.13;;;;;;;13.58;100.00;96332.16;5072738;28;20408;-72
2021/08/25 06:29:02;;;;;;;10.50;9.40;;;;;;;13.91;100.00;96345.53;5072913;28;20416;-72
2021/08/25 06:31:27;;;;;;;10.63;9.30;;;;;;;13.90;100.00;96332.59;5073300;28;20407;-72
2021/08/25 06:33:53;;;;;;;9.73;8.83;;;;;;;13.90;100.00;96341.25;5073845;28;20415;-73
2021/08/25 06:36:20;;;;;;;11.27;9.05;;;;;;;13.96;100.00;96334.81;5072707;28;20415;-72
2021/08/25 06:38:45;;;;;;;10.23;8.98;;;;;;;14.09;100.00;96330.44;5061206;28;20447;-72
2021/08/25 06:41:11;;;;;;;10.98;9.77;;;;;;;14.23;100.00;96335.53;5071697;28;20466;-73
2021/08/25 06:43:36;;;;;;;12.53;9.40;;;;;;;14.59;100.00;96341.78;5069329;28;20751;-73
2021/08/25 06:46:02;;;;;;;13.67;9.00;;;;;;;14.82;96.86;96345.38;5052355;28;20440;-73
2021/08/25 06:48:27;;;;;;;10.80;9.37;;;;;;;14.87;96.79;96345.91;5060296;28;20427;-73
2021/08/25 06:50:53;;;;;;;13.43;9.07;;;;;;;15.04;97.68;96344.69;5072825;28;20481;-76
2021/08/25 06:53:21;;;;;;;9.00;8.10;;;;;;;15.08;93.50;96350.53;5072428;28;20426;-76
2021/08/25 06:55:47;;;;;;;10.30;8.85;;;;;;;14.98;94.08;96337.31;5072223;28;20486;-76
2021/08/25 06:58:12;;;;;;;11.75;9.73;;;;;;;15.14;94.59;96337.06;5072296;28;20423;-77
2021/08/25 07:00:38;;;;;;;11.50;9.43;;;;;;;15.13;94.49;96336.22;5072483;28;20889;-77
2021/08/25 07:03:03;;;;;;;13.73;9.53;;;;;;;15.15;93.72;96339.53;5072661;28;20417;-76
2021/08/25 07:05:28;;;;;;;10.73;8.47;;;;;;;15.25;90.66;96343.16;5072272;28;20450;-77
2021/08/25 07:07:55;;;;;;;9.05;7.80;;;;;;;15.44;91.13;96337.44;5071480;28;20459;-76
2021/08/25 07:10:22;;;;;;;8.95;8.05;;;;;;;15.50;92.37;96333.56;5081572;28;20426;-76
2021/08/25 07:12:48;;;;;;;9.63;7.80;;;;;;;15.60;92.71;96331.09;5071000;28;20421;-76
2021/08/25 07:15:17;;;;;;;10.97;7.80;;;;;;;15.61;93.40;96331.00;5062196;28;20448;-75
2021/08/25 07:17:43;;;;;;;9.02;7.53;;;;;;;15.81;84.59;96331.31;5059251;28;20431;-77
2021/08/25 07:20:10;;;;;;;9.52;7.60;;;;;;;15.93;87.55;96336.44;5053532;28;20504;-76
2021/08/25 07:22:35;;;;;;;10.48;7.45;;;;;;;16.03;88.82;96327.91;5051463;28;20426;-76
2021/08/25 07:25:00;;;;;;;10.38;6.95;;;;;;;16.03;86.21;96327.91;5052336;28;20471;-76
2021/08/25 07:27:33;;;;;;;11.40;7.50;;;;;;;16.18;86.37;96327.59;5056278;22;20544;-76
2021/08/25 07:33:34;;;;;;;13.02;7.80;;;;;;;16.24;85.15;96326.28;5039069;28;20444;-76
2021/08/25 07:35:59;;;;;;;8.27;7.00;;;;;;;16.30;85.78;96322.38;5051856;28;20460;-77
2021/08/25 07:38:25;;;;;;;8.63;7.72;;;;;;;16.35;85.03;96323.69;5067478;28;20881;-76
2021/08/25 07:40:50;;;;;;;8.13;6.60;;;;;;;16.29;81.89;96325.94;5084793;22;20508;-78
2021/08/25 07:43:17;;;;;;;8.60;6.80;;;;;;;16.40;82.59;96321.53;5071030;28;20415;-78
2021/08/25 07:45:42;;;;;;;7.60;6.50;;;;;;;16.53;82.24;96329.25;5070824;28;20506;-78
2021/08/25 07:48:08;;;;;;;11.53;6.53;;;;;;;16.64;83.75;96324.00;5072505;28;20443;-78
2021/08/25 07:50:33;;;;;;;7.30;6.60;;;;;;;16.93;78.48;96318.31;5077061;28;21000;-79
2021/08/25 07:53:00;;;;;;;9.18;6.75;;;;;;;16.97;77.29;96317.09;5075606;28;20420;-78
2021/08/25 07:55:25;;;;;;;7.00;6.35;;;;;;;16.82;76.61;96311.31;5075406;28;21296;-78
2021/08/25 07:57:51;;;;;;;9.48;7.03;;;;;;;17.05;78.98;96311.25;5080210;28;20441;-79
2021/08/25 08:00:18;;;;;;;7.83;7.03;;;;;;;17.06;79.76;96313.78;5075832;28;20952;-79
2021/08/25 08:02:43;;;;;;;8.63;6.35;;;;;;;17.30;78.34;96313.56;5073616;28;20426;-78
2021/08/25 08:05:09;;;;;;;7.93;6.70;;;;;;;17.53;80.44;96311.69;5076044;28;20424;-77
2021/08/25 08:07:35;;;;;;;11.10;6.57;;;;;;;17.58;77.66;96303.47;5078717;28;20407;-78
2021/08/25 08:10:01;;;;;;;8.57;5.77;;;;;;;17.75;75.91;96304.69;5083114;28;20434;-78
2021/08/25 08:12:27;;;;;;;10.73;6.30;;;;;;;17.93;76.01;96310.22;5074104;28;20405;-79
2021/08/25 08:14:52;;;;;;;7.67;6.70;;;;;;;18.06;77.13;96314.31;5064456;28;20417;-79
2021/08/25 08:17:22;;;;;;;8.13;5.57;;;;;;;17.95;71.96;96313.53;5062743;28;20425;-79
2021/08/25 08:19:47;;;;;;;6.25;5.63;;;;;;;18.32;72.82;96304.25;5060836;28;20451;-79
2021/08/25 08:22:13;;;;;;;5.30;4.80;;;;;;;18.29;70.88;96307.13;5061774;28;20417;-79
2021/08/25 08:24:38;;;;;;;5.75;5.15;;;;;;;18.22;69.89;96319.09;5062586;28;20417;-79
2021/08/25 08:27:05;;;;;;;6.37;5.40;;;;;;;18.21;72.17;96317.44;5057299;28;20409;-78
2021/08/25 08:29:30;;;;;;;6.75;5.18;;;;;;;18.28;73.01;96312.47;5055192;28;20578;-78
2021/08/25 08:31:55;;;;;;;6.43;5.20;;;;;;;18.43;71.87;96311.19;5056405;28;20471;-78
2021/08/25 08:34:23;;;;;;;7.95;5.70;;;;;;;18.47;71.27;96317.00;5056469;28;20413;-78
2021/08/25 08:36:48;;;;;;;10.30;5.47;;;;;;;18.52;72.72;96309.56;5052604;28;20504;-78
2021/08/25 08:39:14;;;;;;;6.33;5.33;;;;;;;18.44;70.78;96312.03;5072715;28;20940;-78
2021/08/25 08:41:40;;;;;;;9.90;5.73;;;;;;;18.75;70.15;96313.66;5077801;28;20900;-78
2021/08/25 08:44:09;;;;;;;7.67;5.37;;;;;;;18.80;69.22;96308.88;5075550;28;20415;-78
2021/08/25 08:46:34;;;;;;;10.50;5.90;;;;;;;18.73;70.67;96309.53;5076700;28;20471;-79
2021/08/25 08:49:00;;;;;;;6.93;5.50;;;;;;;18.25;68.05;96310.13;5076179;28;20451;-78
2021/08/25 08:51:27;;;;;;;7.60;5.55;;;;;;;18.40;73.08;96311.44;5075057;28;20411;-78
2021/08/25 08:53:53;;;;;;;6.50;4.90;;;;;;;18.65;67.20;96306.69;5075071;28;20415;-79
2021/08/25 08:56:19;;;;;;;6.80;4.65;;;;;;;18.92;68.06;96311.38;5077879;28;20427;-79
2021/08/25 08:58:45;;;;;;;6.72;4.95;;;;;;;18.93;67.86;96311.25;5072083;28;20921;-77
2021/08/25 09:01:11;;;;;;;5.50;4.65;;;;;;;18.92;64.72;96306.97;5077228;28;20766;-79
2021/08/25 09:03:39;;;;;;;9.73;4.50;;;;;;;19.10;65.00;96307.16;5075688;28;20433;-78
2021/08/25 09:06:06;;;;;;;12.65;5.78;;;;;;;19.01;63.31;96307.94;5071872;28;20466;-78
2021/08/25 09:08:34;;;;;;;6.32;5.13;;;;;;;19.22;68.23;96305.22;5081011;28;20895;-78
2021/08/25 09:11:03;;;;;;;8.20;5.18;;;;;;;19.31;65.20;96305.22;5093384;28;20454;-78
2021/08/25 09:13:36;;;;;;;7.10;6.35;;;;;;;19.34;67.53;96298.88;5074610;28;20419;-78
2021/08/25 09:16:02;;;;;;;8.05;5.63;;;;;;;19.47;67.31;96302.06;5073738;28;20989;-78
2021/08/25 09:18:28;;;;;;;8.30;5.47;;;;;;;19.50;67.78;96296.50;5075674;28;20419;-78
2021/08/25 09:20:53;;;;;;;10.45;6.57;;;;;;;19.28;69.33;96296.78;5080552;28;20462;-79
2021/08/25 09:23:21;;;;;;;9.88;6.18;;;;;;;19.46;68.01;96300.38;5078915;28;20416;-78
2021/08/25 09:25:49;;;;;;;9.32;5.97;;;;;;;19.57;68.66;96302.88;5077357;28;20411;-78
2021/08/25 09:28:17;;;;;;;6.55;5.15;;;;;;;19.79;65.83;96303.59;5076731;28;20426;-78
2021/08/25 09:30:57;;;;;;;6.55;5.38;;;;;;;19.76;64.00;96298.59;5077537;28;20419;-78
2021/08/25 09:33:26;;;;;;;8.10;4.80;;;;;;;19.88;62.63;96304.56;5077157;28;20415;-78
2021/08/25 09:35:54;;;;;;;7.32;5.28;;;;;;;19.92;64.02;96291.00;5073996;28;20445;-78
2021/08/25 09:38:21;;;;;;;5.63;5.03;;;;;;;19.87;64.96;96295.81;5077590;28;20777;-78
2021/08/25 09:40:51;;;;;;;7.15;5.90;;;;;;;19.95;60.65;96295.13;5075650;28;20427;-78
2021/08/25 09:43:38;;;;;;;6.70;4.90;;;;;;;20.04;61.44;96299.53;5076374;28;20426;-78
2021/08/25 09:46:05;;;;;;;11.40;5.93;;;;;;;20.03;62.40;96292.63;5078773;28;20415;-78
2021/08/25 09:48:35;;;;;;;5.43;4.93;;;;;;;19.92;60.99;96290.16;5079163;28;20900;-77
2021/08/25 09:51:01;;;;;;;6.43;5.28;;;;;;;20.01;64.15;96292.75;5077204;28;20399;-79
2021/08/25 09:53:26;;;;;;;6.73;5.47;;;;;;;20.06;61.89;96294.97;5077347;28;20407;-78
2021/08/25 09:55:53;;;;;;;7.67;6.27;;;;;;;20.15;62.02;96290.66;5077052;28;20412;-78
2021/08/25 09:58:20;;;;;;;6.88;6.18;;;;;;;20.08;60.82;96297.47;5058966;28;20491;-77
2021/08/25 10:00:46;;;;;;;6.22;5.60;;;;;;;20.18;59.83;96295.63;5055790;28;20421;-78
2021/08/25 10:03:11;;;;;;;5.68;5.18;;;;;;;20.30;61.31;96290.06;5055574;28;20508;-78
2021/08/25 10:05:38;;;;;;;6.78;5.47;;;;;;;20.30;60.37;96287.41;5053682;28;20413;-78
2021/08/25 10:08:04;;;;;;;6.10;5.50;;;;;;;20.17;59.32;96284.28;5055773;28;20409;-79
2021/08/25 10:10:30;;;;;;;6.72;5.20;;;;;;;19.96;59.60;96289.72;5054151;28;20453;-78
2021/08/25 10:12:57;;;;;;;7.53;5.05;;;;;;;19.99;61.27;96289.44;5069279;28;20458;-78
2021/08/25 10:15:47;;;;;;;6.57;5.00;;;;;;;20.18;61.23;96285.94;5073335;28;20419;-78
2021/08/25 10:18:27;;;;;;;7.22;5.65;;;;;;;20.28;61.35;96278.84;5073853;28;20418;-78
2021/08/25 10:20:54;;;;;;;6.38;5.40;;;;;;;20.27;64.65;96282.44;5073669;28;20426;-78
2021/08/25 10:23:19;;;;;;;7.60;5.45;;;;;;;20.20;58.66;96275.28;5074687;28;20412;-79
2021/08/25 10:26:05;;;;;;;9.18;4.90;;;;;;;20.32;61.97;96274.13;5074900;28;20418;-78
2021/08/25 10:31:25;;;;;;;6.30;5.18;;;;;;;19.90;57.43;96277.16;5110820;27;20431;-79
2021/08/25 10:34:13;;;;;;;7.55;6.10;;;;;;;20.32;58.55;96266.25;5109639;28;20967;-79
2021/08/25 10:36:39;;;;;;;7.30;5.57;;;;;;;20.23;61.45;96267.09;5110408;28;20428;-80
2021/08/25 10:39:30;;;;;;;9.33;6.07;;;;;;;20.43;60.36;96263.44;5109326;28;20413;-80
2021/08/25 10:41:56;;;;;;;8.85;5.68;;;;;;;20.41;62.57;96261.91;5103012;28;20423;-80
2021/08/25 10:44:46;;;;;;;8.23;5.60;;;;;;;20.30;54.84;96263.75;5096132;23;20449;-76
2021/08/25 10:47:15;;;;;;;7.20;5.68;;;;;;;20.21;60.95;96262.00;5067273;28;20421;-76
2021/08/25 10:49:42;;;;;;;8.38;5.75;;;;;;;20.42;57.84;96255.66;5067612;28;20425;-76
2021/08/25 10:52:27;;;;;;;6.45;5.40;;;;;;;20.64;58.00;96247.41;5067545;28;20507;-76
2021/08/25 10:54:55;;;;;;;6.93;5.77;;;;;;;20.54;57.75;96262.41;5067601;28;20525;-76
2021/08/25 10:57:22;;;;;;;9.70;5.88;;;;;;;20.30;60.22;96250.59;5067301;28;20517;-76
2021/08/25 10:59:49;;;;;;;8.10;6.15;;;;;;;20.37;60.24;96242.97;5049333;28;20493;-76
2021/08/25 11:02:16;;;;;;;6.93;5.45;;;;;;;20.03;57.44;96240.88;5067010;28;20770;-76
2021/08/25 11:04:41;;;;;;;10.73;6.00;;;;;;;19.97;56.99;96230.91;5067443;28;20497;-76
2021/08/25 11:07:10;;;;;;;8.87;5.73;;;;;;;20.49;58.49;96227.81;5067146;28;20431;-76
2021/08/25 11:09:36;;;;;;;8.15;5.88;;;;;;;19.87;56.49;96224.03;5067424;28;20934;-77
2021/08/25 11:12:05;;;;;;;7.57;5.47;;;;;;;19.89;57.13;96232.59;5073936;28;20490;-77
2021/08/25 11:14:38;;;;;;;6.53;5.72;;;;;;;19.54;56.41;96236.63;5069426;28;20509;-77
2021/08/25 11:17:12;;;;;;;9.30;6.18;;;;;;;19.39;60.19;96243.28;5087436;28;20411;-78
2021/08/25 11:19:41;;;;;;;6.25;5.55;;;;;;;19.55;59.72;96227.81;5087554;28;20407;-76
2021/08/25 11:22:12;;;;;;;8.60;5.40;;;;;;;19.81;58.71;96221.00;5069138;28;20684;-76
2021/08/25 11:24:40;;;;;;;5.95;5.25;;;;;;;19.96;59.57;96226.63;5087217;28;20425;-76